Time;durP1;ratioP1;P1;durP2;ratioP2;P2;SDS_P1;SDS_P2;PMS_P1;PMS_P2;Temp;Humidity;BMP_temperature;BMP_pressure;BME280_temperature;BME280_humidity;BME280_pressure;Samples;Min_cycle;Max_cycle;Signal;HPM_P1;HPM_P2
2022/08/17 00:00:38;;;;;;;6.00;1.25;;;;;;;18.87;100.00;99077.67;1696323;82;21524;-53
2022/08/17 00:03:20;;;;;;;2.90;1.45;;;;;;;18.87;100.00;99081.76;1700510;82;21660;-52
2022/08/17 00:06:05;;;;;;;5.75;1.25;;;;;;;18.85;100.00;99073.72;1696305;82;21084;-52
2022/08/17 00:08:36;;;;;;;3.83;1.10;;;;;;;18.83;100.00;99067.53;1696791;82;21514;-53
2022/08/17 00:11:06;;;;;;;3.20;1.32;;;;;;;18.81;100.00;99064.08;1696945;82;21139;-53
2022/08/17 00:13:37;;;;;;;6.87;1.90;;;;;;;18.78;100.00;99061.66;1698694;82;21329;-53
2022/08/17 00:16:09;;;;;;;4.50;1.10;;;;;;;18.77;100.00;99068.61;1698880;82;21064;-52
2022/08/17 00:18:35;;;;;;;6.60;1.05;;;;;;;18.76;100.00;99062.80;1697564;82;20988;-53
2022/08/17 00:21:04;;;;;;;3.65;1.00;;;;;;;18.73;100.00;99058.48;1695011;82;21031;-52
2022/08/17 00:23:30;;;;;;;3.87;1.20;;;;;;;18.73;100.00;99058.48;1699255;82;21060;-53
2022/08/17 00:25:57;;;;;;;2.35;1.10;;;;;;;18.73;100.00;99058.48;1699680;82;21200;-53
2022/08/17 00:28:24;;;;;;;1.80;1.20;;;;;;;18.72;100.00;99060.84;1694008;82;21502;-53
2022/08/17 00:30:50;;;;;;;5.20;1.12;;;;;;;18.74;100.00;99060.70;1701804;82;20990;-53
2022/08/17 00:33:22;;;;;;;5.08;1.32;;;;;;;18.74;100.00;99064.80;1697384;82;21518;-53
2022/08/17 00:35:49;;;;;;;2.77;1.27;;;;;;;18.72;100.00;99067.66;1696678;82;21109;-52
2022/08/17 00:38:16;;;;;;;5.05;1.35;;;;;;;18.70;100.00;99080.59;1696678;82;21125;-52
2022/08/17 00:40:46;;;;;;;2.45;1.37;;;;;;;18.68;100.00;99075.77;1693951;82;21498;-52
2022/08/17 00:43:30;;;;;;;5.08;1.57;;;;;;;18.68;100.00;99079.00;1694894;82;21110;-52
2022/08/17 00:45:58;;;;;;;2.35;1.25;;;;;;;18.67;100.00;99083.59;1696761;82;21034;-53
2022/08/17 00:48:25;;;;;;;3.47;1.60;;;;;;;18.66;100.00;99081.00;1692834;82;21590;-53
2022/08/17 00:51:12;;;;;;;5.92;1.62;;;;;;;18.65;100.00;99080.63;1706859;81;21517;-52
2022/08/17 00:53:43;;;;;;;7.05;2.85;;;;;;;18.65;100.00;99083.36;1719306;81;21102;-53
2022/08/17 00:56:14;;;;;;;5.22;1.60;;;;;;;18.62;100.00;99077.72;1719578;81;21050;-52
2022/08/17 00:58:40;;;;;;;1.57;1.32;;;;;;;18.58;100.00;99078.12;1717385;81;21520;-52
2022/08/17 01:01:07;;;;;;;3.45;1.50;;;;;;;18.55;100.00;99081.94;1720080;81;21556;-52
2022/08/17 01:03:34;;;;;;;3.95;1.75;;;;;;;18.53;100.00;99087.56;1717788;81;21821;-52
2022/08/17 01:06:01;;;;;;;4.45;1.25;;;;;;;18.50;100.00;99089.19;1713715;81;21305;-53
2022/08/17 01:08:28;;;;;;;8.10;1.45;;;;;;;18.49;100.00;99089.33;1718743;81;21508;-52
2022/08/17 01:10:57;;;;;;;4.22;1.27;;;;;;;18.47;100.00;99081.78;1721899;81;21035;-53
2022/08/17 01:13:24;;;;;;;2.30;1.20;;;;;;;18.45;100.00;99083.31;1720487;81;21100;-53
2022/08/17 01:16:04;;;;;;;3.60;1.32;;;;;;;18.46;100.00;99080.05;1716994;81;21080;-52
2022/08/17 01:18:32;;;;;;;6.33;1.30;;;;;;;18.44;100.00;99078.86;1712674;81;21149;-52
2022/08/17 01:21:04;;;;;;;5.12;1.40;;;;;;;18.43;100.00;99070.32;1710650;81;21072;-52
2022/08/17 01:23:31;;;;;;;10.72;1.95;;;;;;;18.45;100.00;99068.83;1716684;81;21045;-50
2022/08/17 01:26:00;;;;;;;3.98;1.00;;;;;;;18.43;100.00;99062.14;1714504;81;21517;-51
2022/08/17 01:28:34;;;;;;;8.38;2.30;;;;;;;18.42;100.00;99058.19;1715594;81;21162;-50
2022/08/17 01:31:01;;;;;;;2.60;1.20;;;;;;;18.41;100.00;99060.55;1715654;81;21053;-51
2022/08/17 01:33:28;;;;;;;2.58;1.10;;;;;;;18.40;100.00;99062.41;1684763;81;21117;-51
2022/08/17 01:35:55;;;;;;;3.60;1.40;;;;;;;18.37;100.00;99061.84;1714785;81;21390;-53
2022/08/17 01:38:22;;;;;;;4.97;1.35;;;;;;;18.37;100.00;99063.21;1723009;81;20892;-50
2022/08/17 01:40:52;;;;;;;1.87;1.10;;;;;;;18.35;100.00;99058.39;1713547;81;21109;-51
2022/08/17 01:43:26;;;;;;;3.12;1.40;;;;;;;18.33;100.00;99052.22;1713248;81;20984;-52
2022/08/17 01:45:54;;;;;;;5.22;1.37;;;;;;;18.32;100.00;99050.48;1719237;81;20946;-52
2022/08/17 01:48:22;;;;;;;6.12;1.92;;;;;;;18.29;100.00;99048.89;1716331;81;20954;-50
2022/08/17 01:50:50;;;;;;;5.78;1.50;;;;;;;18.28;100.00;99054.02;1708686;81;20950;-51
2022/08/17 01:53:33;;;;;;;3.52;1.30;;;;;;;18.26;100.00;99049.70;1693947;82;21672;-50
2022/08/17 01:56:11;;;;;;;4.97;1.50;;;;;;;18.26;100.00;99041.52;1698571;82;20989;-52
2022/08/17 01:58:38;;;;;;;6.12;1.80;;;;;;;18.23;100.00;99044.52;1699243;82;21390;-51
2022/08/17 02:01:05;;;;;;;6.03;1.12;;;;;;;18.21;100.00;99045.14;1694674;82;20875;-53
2022/08/17 02:03:33;;;;;;;2.67;1.50;;;;;;;18.19;100.00;99041.72;1698037;82;20907;-51
2022/08/17 02:06:00;;;;;;;4.75;1.57;;;;;;;18.16;100.00;99044.22;1694776;82;21098;-50
2022/08/17 02:08:27;;;;;;;3.83;1.30;;;;;;;18.14;100.00;99048.94;1692316;82;20936;-50
2022/08/17 02:10:54;;;;;;;7.83;1.07;;;;;;;18.13;100.00;99049.43;1662156;84;21445;-52
2022/08/17 02:13:20;;;;;;;3.77;1.42;;;;;;;18.12;100.00;99047.70;1697685;82;20892;-50
2022/08/17 02:15:47;;;;;;;3.12;1.30;;;;;;;18.12;100.00;99053.65;1697039;82;20947;-52
2022/08/17 02:18:14;;;;;;;6.90;1.77;;;;;;;18.12;100.00;99044.11;1699742;82;21104;-51
2022/08/17 02:20:41;;;;;;;5.15;1.20;;;;;;;18.10;100.00;99047.50;1700097;82;20922;-50
2022/08/17 02:23:07;;;;;;;6.67;1.10;;;;;;;18.08;100.00;99043.55;1698454;82;20968;-50
2022/08/17 02:25:35;;;;;;;2.42;1.12;;;;;;;18.08;100.00;99038.60;1697225;82;21083;-50
2022/08/17 02:28:03;;;;;;;6.28;1.65;;;;;;;18.08;100.00;99039.47;1699571;82;21074;-50
2022/08/17 02:30:29;;;;;;;5.37;1.40;;;;;;;18.07;100.00;99032.29;1694605;82;21890;-49
2022/08/17 02:32:56;;;;;;;2.35;1.25;;;;;;;18.09;100.00;99033.52;1694548;82;21041;-50
2022/08/17 02:35:22;;;;;;;6.87;1.32;;;;;;;18.10;100.00;99036.61;1695083;82;21078;-50
2022/08/17 02:37:50;;;;;;;3.65;1.25;;;;;;;18.10;100.00;99033.89;1697031;82;21129;-51
2022/08/17 02:40:16;;;;;;;5.78;1.10;;;;;;;18.11;100.00;99040.56;1675677;82;21089;-53
2022/08/17 02:42:44;;;;;;;5.62;1.30;;;;;;;18.11;100.00;99032.39;1696466;82;21145;-51
2022/08/17 02:45:15;;;;;;;2.83;1.25;;;;;;;18.12;100.00;99034.08;1693634;82;22188;-53
2022/08/17 02:47:42;;;;;;;3.25;1.20;;;;;;;18.09;100.00;99031.66;1691408;82;21517;-49
2022/08/17 02:50:11;;;;;;;2.05;1.25;;;;;;;18.08;100.00;99040.83;1694012;82;21051;-51
2022/08/17 02:52:39;;;;;;;8.13;1.65;;;;;;;18.08;100.00;99046.77;1696956;82;21045;-50
2022/08/17 02:55:16;;;;;;;10.38;1.67;;;;;;;18.06;100.00;99043.31;1703862;82;21099;-50
2022/08/17 02:57:43;;;;;;;5.08;1.65;;;;;;;18.04;100.00;99043.45;1701995;82;21053;-50
2022/08/17 03:00:18;;;;;;;3.92;1.37;;;;;;;18.01;100.00;99045.61;1700781;82;21106;-50
2022/08/17 03:02:44;;;;;;;2.40;1.20;;;;;;;17.99;100.00;99041.66;1701564;82;21051;-50
2022/08/17 03:05:13;;;;;;;3.45;1.10;;;;;;;18.00;100.00;99039.80;1706860;82;21086;-52
2022/08/17 03:07:39;;;;;;;2.50;1.12;;;;;;;18.01;100.00;99042.38;1705504;82;21779;-50
2022/08/17 03:10:08;;;;;;;4.90;1.47;;;;;;;18.03;100.00;99049.06;1704910;82;21091;-49
2022/08/17 03:12:38;;;;;;;10.68;1.42;;;;;;;18.04;100.00;99043.95;1701865;82;21046;-51
2022/08/17 03:15:11;;;;;;;3.27;1.20;;;;;;;18.05;100.00;99037.01;1701203;82;21164;-52
2022/08/17 03:17:38;;;;;;;3.58;1.20;;;;;;;18.08;100.00;99044.91;1703957;82;21057;-50
2022/08/17 03:20:06;;;;;;;7.83;1.25;;;;;;;18.09;100.00;99043.92;1698120;82;21921;-53
2022/08/17 03:22:39;;;;;;;2.05;1.20;;;;;;;18.12;100.00;99042.75;1698011;82;21074;-50
2022/08/17 03:25:08;;;;;;;8.18;1.00;;;;;;;18.12;100.00;99044.98;1701330;82;21100;-49
2022/08/17 03:27:35;;;;;;;1.42;1.07;;;;;;;18.12;100.00;99043.62;1696836;82;21069;-50
2022/08/17 03:30:04;;;;;;;8.43;1.27;;;;;;;18.14;100.00;99041.63;1703087;82;21351;-52
2022/08/17 03:32:39;;;;;;;3.62;1.07;;;;;;;18.17;100.00;99042.36;1699612;82;21815;-52
2022/08/17 03:35:06;;;;;;;5.72;1.12;;;;;;;18.19;100.00;99039.00;1671983;82;21124;-50
2022/08/17 03:37:33;;;;;;;7.08;1.42;;;;;;;18.21;100.00;99033.75;1704287;82;21060;-50
2022/08/17 03:40:00;;;;;;;3.55;1.00;;;;;;;18.25;100.00;99030.27;1696838;82;21113;-49
2022/08/17 03:42:26;;;;;;;3.83;1.00;;;;;;;18.29;100.00;99037.17;1701954;82;21139;-49
2022/08/17 03:44:55;;;;;;;9.40;1.10;;;;;;;18.31;100.00;99037.37;1699231;82;22337;-50
2022/08/17 03:58:23;;;;;;;6.08;2.08;;;;;;;18.57;100.00;99047.27;1695820;82;21262;-50
2022/08/17 04:00:49;;;;;;;3.77;1.87;;;;;;;18.61;100.00;99043.28;1693308;82;21083;-50
2022/08/17 04:03:16;;;;;;;3.87;1.90;;;;;;;18.66;100.00;99043.70;1695815;82;21413;-51
2022/08/17 04:05:43;;;;;;;4.30;1.32;;;;;;;18.72;100.00;99041.77;1691051;83;21423;-50
2022/08/17 04:08:10;;;;;;;4.75;1.50;;;;;;;18.77;100.00;99039.48;1693459;82;21492;-52
2022/08/17 04:10:37;;;;;;;2.55;1.20;;;;;;;18.85;100.00;99036.04;1693192;82;21858;-49
2022/08/17 04:13:03;;;;;;;2.67;1.60;;;;;;;18.96;100.00;99032.31;1693257;82;21459;-53
2022/08/17 04:15:32;;;;;;;6.00;1.40;;;;;;;19.03;100.00;99026.64;1695900;83;21101;-50
2022/08/17 04:17:58;;;;;;;2.75;1.10;;;;;;;19.15;100.00;99035.00;1688745;82;21118;-50
2022/08/17 04:20:26;;;;;;;4.40;1.30;;;;;;;19.36;100.00;99035.70;1693020;82;21901;-51
2022/08/17 04:23:03;;;;;;;4.75;1.70;;;;;;;19.64;100.00;99032.59;1694950;82;21152;-49
2022/08/17 04:25:33;;;;;;;3.87;1.52;;;;;;;19.92;100.00;99036.20;1696262;82;21729;-51
2022/08/17 04:27:59;;;;;;;3.83;1.17;;;;;;;20.16;100.00;99034.31;1688033;82;21064;-51
2022/08/17 04:30:28;;;;;;;4.17;1.90;;;;;;;20.35;100.00;99023.28;1697145;82;21063;-52
2022/08/17 04:32:58;;;;;;;1.92;1.30;;;;;;;20.52;100.00;99032.02;1697880;82;21454;-53
2022/08/17 04:35:29;;;;;;;10.55;1.90;;;;;;;20.66;100.00;99021.94;1696670;82;21825;-53
2022/08/17 04:37:55;;;;;;;6.75;1.72;;;;;;;20.79;100.00;99022.91;1698234;82;20970;-53
2022/08/17 04:43:15;;;;;;;5.85;1.95;;;;;;;21.03;100.00;99016.79;1690849;83;21069;-51
2022/08/17 04:45:48;;;;;;;5.28;1.45;;;;;;;21.09;100.00;99014.81;1696836;82;21051;-51
2022/08/17 04:48:14;;;;;;;3.55;1.50;;;;;;;21.15;100.00;99009.56;1693118;82;22397;-50
2022/08/17 04:50:45;;;;;;;3.87;1.77;;;;;;;21.16;100.00;99003.58;1694039;82;21377;-53
2022/08/17 04:53:12;;;;;;;4.05;1.15;;;;;;;21.15;100.00;99008.19;1703874;82;21423;-51
2022/08/17 04:55:39;;;;;;;7.62;1.40;;;;;;;21.12;100.00;98996.69;1696772;82;20970;-53
2022/08/17 04:58:05;;;;;;;6.75;1.50;;;;;;;21.08;100.00;98998.91;1698477;82;20982;-53
2022/08/17 05:00:32;;;;;;;3.25;1.67;;;;;;;21.03;100.00;99005.34;1701407;82;21122;-54
2022/08/17 05:02:59;;;;;;;4.55;1.20;;;;;;;20.98;100.00;99002.73;1704742;82;21356;-53
2022/08/17 05:05:31;;;;;;;5.20;1.55;;;;;;;20.87;100.00;99004.34;1701931;82;20927;-52
2022/08/17 05:08:00;;;;;;;5.97;1.87;;;;;;;20.80;100.00;99001.88;1700593;82;21662;-51
2022/08/17 05:10:31;;;;;;;3.75;1.02;;;;;;;20.77;100.00;99003.05;1695672;82;20997;-51
2022/08/17 05:13:02;;;;;;;2.45;1.12;;;;;;;20.76;100.00;98998.59;1698650;82;21144;-51
2022/08/17 05:15:31;;;;;;;7.87;1.55;;;;;;;20.78;100.00;98996.06;1704058;82;20933;-52
2022/08/17 05:17:57;;;;;;;1.67;1.50;;;;;;;20.82;100.00;99004.83;1701214;82;20942;-52
2022/08/17 05:20:24;;;;;;;6.72;1.15;;;;;;;20.90;100.00;99009.00;1704290;82;21287;-52
2022/08/17 05:22:53;;;;;;;7.35;1.82;;;;;;;20.95;100.00;99012.62;1705408;82;20986;-50
2022/08/17 05:25:30;;;;;;;9.68;1.27;;;;;;;20.95;100.00;99018.95;1698246;82;21114;-51
2022/08/17 05:27:57;;;;;;;3.12;1.30;;;;;;;20.96;100.00;99016.56;1704124;82;20926;-50
2022/08/17 05:30:23;;;;;;;6.17;1.17;;;;;;;20.99;100.00;99016.27;1704989;82;20919;-51
2022/08/17 05:33:08;;;;;;;5.80;1.42;;;;;;;21.03;100.00;99014.05;1699503;82;21069;-53
2022/08/17 05:35:37;;;;;;;4.55;1.22;;;;;;;21.06;100.00;99020.08;1698739;82;21362;-53
2022/08/17 05:38:04;;;;;;;2.50;1.22;;;;;;;21.12;100.00;99026.79;1703593;82;21567;-51
2022/08/17 05:40:30;;;;;;;3.10;1.30;;;;;;;21.15;100.00;99030.59;1698524;82;21539;-51
2022/08/17 05:43:10;;;;;;;2.90;1.30;;;;;;;21.18;100.00;99030.28;1700037;82;21618;-52
2022/08/17 05:45:53;;;;;;;5.17;1.20;;;;;;;21.23;100.00;99038.04;1698963;82;21422;-51
2022/08/17 05:48:20;;;;;;;5.87;1.40;;;;;;;21.28;100.00;99038.41;1702859;82;21144;-52
2022/08/17 05:51:04;;;;;;;4.00;1.20;;;;;;;21.32;100.00;99041.19;1703228;82;21142;-53
2022/08/17 05:53:50;;;;;;;3.58;1.20;;;;;;;21.36;100.00;99051.65;1712904;81;21661;-52
2022/08/17 05:56:35;;;;;;;1.30;1.20;;;;;;;21.40;100.00;99053.58;1719424;81;21447;-51
2022/08/17 05:59:29;;;;;;;1.95;1.10;;;;;;;21.44;100.00;99050.85;1717108;81;21359;-53
2022/08/17 06:02:18;;;;;;;;;;;;;;;21.49;100.00;99055.36;1720191;81;21078;-51
2022/08/17 06:05:16;;;;;;;3.58;1.40;;;;;;;21.58;100.00;99058.51;1682889;83;21207;-53
2022/08/17 06:07:51;;;;;;;3.50;1.10;;;;;;;21.66;100.00;99064.55;1712956;81;21143;-52
2022/08/17 06:10:39;;;;;;;7.72;1.45;;;;;;;21.68;100.00;99062.52;1717280;81;23382;-52
2022/08/17 06:13:20;;;;;;;4.62;1.27;;;;;;;21.70;100.00;99059.08;1713991;81;21093;-55
2022/08/17 06:16:09;;;;;;;5.92;2.35;;;;;;;21.71;100.00;99061.66;1682459;81;21058;-52
2022/08/17 06:18:47;;;;;;;5.25;1.57;;;;;;;21.72;100.00;99059.78;1712189;81;21288;-52
2022/08/17 06:21:16;;;;;;;3.45;1.30;;;;;;;21.72;100.00;99062.52;1711531;81;21101;-53
2022/08/17 06:24:09;;;;;;;4.97;1.10;;;;;;;21.74;100.00;99057.75;1712468;81;21070;-52
2022/08/17 06:26:38;;;;;;;5.35;1.02;;;;;;;21.76;100.00;99063.94;1710306;81;21093;-51
2022/08/17 06:29:34;;;;;;;1.85;1.25;;;;;;;21.78;100.00;99061.88;1720922;81;21337;-54
2022/08/17 06:32:02;;;;;;;4.35;1.40;;;;;;;21.84;100.00;99055.26;1719464;81;21210;-53
2022/08/17 06:34:28;;;;;;;1.80;1.40;;;;;;;21.95;100.00;99061.48;1714977;81;21096;-52
2022/08/17 06:37:33;;;;;;;4.83;1.27;;;;;;;22.05;100.00;99061.72;1714861;81;21472;-55
2022/08/17 06:40:50;;;;;;;3.77;1.00;;;;;;;22.15;100.00;99061.09;1720230;81;21047;-53
2022/08/17 06:43:25;;;;;;;2.05;1.30;;;;;;;22.30;100.00;99060.47;1721896;81;21089;-53
2022/08/17 06:46:04;;;;;;;2.75;1.22;;;;;;;22.43;100.00;99056.26;1713704;81;22647;-52
2022/08/17 06:48:48;;;;;;;1.30;1.17;;;;;;;22.55;100.00;99060.91;1716345;81;21073;-53
2022/08/17 06:51:25;;;;;;;4.67;1.12;;;;;;;22.64;100.00;99066.25;1714139;81;21403;-50
2022/08/17 06:54:00;;;;;;;2.58;1.20;;;;;;;22.65;100.00;99059.74;1653297;84;21062;-51
2022/08/17 06:56:44;;;;;;;2.52;1.40;;;;;;;22.66;100.00;99063.34;1662083;84;22188;-51
2022/08/17 06:59:14;;;;;;;6.72;1.30;;;;;;;22.83;100.00;99066.51;1661169;84;21981;-52
2022/08/17 07:01:40;;;;;;;2.62;1.07;;;;;;;22.94;100.00;99072.20;1672083;84;21033;-50
2022/08/17 07:04:13;;;;;;;2.27;1.05;;;;;;;23.01;100.00;99071.86;1664355;84;21073;-50
2022/08/17 07:06:48;;;;;;;2.35;1.12;;;;;;;23.11;100.00;99068.96;1677895;84;21563;-52
2022/08/17 07:09:30;;;;;;;5.42;1.25;;;;;;;23.07;100.00;99067.57;1668821;84;21057;-52
2022/08/17 07:12:11;;;;;;;7.92;1.60;;;;;;;23.10;100.00;99073.59;1671701;84;21934;-52
2022/08/17 07:15:04;;;;;;;5.37;1.30;;;;;;;23.14;100.00;99067.27;1618445;87;21492;-51
2022/08/17 07:17:31;;;;;;;5.75;1.30;;;;;;;23.16;100.00;99075.65;1602026;87;21564;-51
2022/08/17 07:20:08;;;;;;;7.53;1.20;;;;;;;23.34;100.00;99070.86;1641157;84;21517;-53
2022/08/17 07:22:43;;;;;;;7.47;1.50;;;;;;;23.26;100.00;116433.64;1664407;84;21412;-52
2022/08/17 07:25:11;;;;;;;7.05;1.10;;;;;;;23.26;100.00;99070.86;1667751;84;21824;-52
2022/08/17 07:27:44;;;;;;;4.00;1.77;;;;;;;23.40;100.00;99066.55;1666621;84;21718;-52
2022/08/17 07:30:20;;;;;;;7.20;1.60;;;;;;;23.48;100.00;99065.18;1660699;84;472723;-54
2022/08/17 07:32:57;;;;;;;10.90;1.10;;;;;;;23.57;100.00;99060.57;1670150;84;21065;-53
2022/08/17 07:35:38;;;;;;;3.62;1.37;;;;;;;23.64;100.00;99064.37;1668899;84;21100;-53
2022/08/17 07:38:21;;;;;;;5.12;1.27;;;;;;;23.70;100.00;99064.52;1668476;84;21153;-52
2022/08/17 07:41:03;;;;;;;9.20;1.35;;;;;;;23.75;100.00;99063.98;1670760;84;21066;-53
2022/08/17 07:43:40;;;;;;;4.10;1.27;;;;;;;23.78;100.00;99060.04;1674792;84;21472;-51
2022/08/17 07:49:52;;;;;;;2.23;1.70;;;;;;;23.81;100.00;99065.20;1649631;84;874905;-51
2022/08/17 07:52:29;;;;;;;3.77;1.30;;;;;;;23.81;100.00;99065.20;1671204;83;23523;-54
2022/08/17 07:54:56;;;;;;;5.87;2.08;;;;;;;23.97;100.00;99063.79;1658252;84;21108;-51
2022/08/17 08:00:42;;;;;;;9.33;2.47;;;;;;;24.01;100.00;99059.64;1583697;84;984615;-52
2022/08/17 08:03:59;;;;;;;7.00;1.30;;;;;;;24.01;100.00;99059.64;1526435;84;985140;-53
2022/08/17 08:06:26;;;;;;;4.60;1.00;;;;;;;24.01;100.00;99059.64;1650035;84;865961;-52
2022/08/17 08:08:54;;;;;;;4.25;1.80;;;;;;;24.25;100.00;99062.84;1662608;84;21448;-52
2022/08/17 08:11:35;;;;;;;6.10;1.60;;;;;;;24.30;100.00;99062.68;1662926;84;21103;-51
2022/08/17 08:14:24;;;;;;;6.15;1.42;;;;;;;24.39;100.00;99057.48;1634881;85;21560;-53
2022/08/17 08:17:00;;;;;;;6.15;1.65;;;;;;;24.50;100.00;99057.06;1546950;91;21119;-52
2022/08/17 08:19:28;;;;;;;5.33;1.50;;;;;;;24.59;100.00;99057.89;1635354;84;984554;-52
2022/08/17 08:22:10;;;;;;;3.10;1.20;;;;;;;24.76;100.00;99056.76;1664575;84;20902;-54
2022/08/17 08:25:00;;;;;;;5.85;1.40;;;;;;;24.80;100.00;99058.13;1671836;84;21408;-53
2022/08/17 08:28:08;;;;;;;4.35;1.50;;;;;;;24.91;100.00;99058.76;1659886;84;865672;-53
2022/08/17 08:30:40;;;;;;;4.25;1.22;;;;;;;25.00;100.00;99058.56;1648269;84;975194;-54
2022/08/17 08:33:24;;;;;;;7.60;1.67;;;;;;;25.08;100.00;99052.14;1615784;84;974761;-54
2022/08/17 08:36:26;;;;;;;3.50;1.34;;;;;;;25.13;100.00;99059.31;1609381;84;975047;-52
2022/08/17 08:39:24;;;;;;;5.90;1.50;;;;;;;25.13;100.00;99059.31;1587847;84;985168;-54
2022/08/17 08:42:14;;;;;;;3.80;1.50;;;;;;;25.13;100.00;99059.31;1665729;84;21040;-52
2022/08/17 08:44:55;;;;;;;2.87;1.37;;;;;;;25.28;100.00;99051.10;1661186;84;21527;-54
2022/08/17 08:47:54;;;;;;;6.42;1.57;;;;;;;25.29;100.00;99052.82;1576871;84;975332;-53
2022/08/17 08:50:53;;;;;;;6.30;1.60;;;;;;;25.33;100.00;99051.42;1556309;84;975119;-51
2022/08/17 08:54:33;;;;;;;4.67;1.57;;;;;;;25.37;100.00;99053.61;1614420;84;984805;-53
2022/08/17 08:57:35;;;;;;;9.30;1.90;;;;;;;25.37;100.00;99053.61;1691674;83;21116;-53
2022/08/17 09:00:54;;;;;;;9.80;2.10;;;;;;;25.49;100.00;99053.52;1635850;83;985027;-52
2022/08/17 09:03:42;;;;;;;4.60;1.50;;;;;;;25.49;100.00;99053.52;1657777;83;975351;-53
2022/08/17 09:08:03;;;;;;;2.80;1.70;;;;;;;25.71;100.00;99052.30;1777934;78;115060;-56
2022/08/17 09:10:35;;;;;;;10.48;2.08;;;;;;;25.74;100.00;99062.44;1694779;80;975502;-53
2022/08/17 09:13:10;;;;;;;9.33;1.50;;;;;;;25.84;100.00;99060.80;1747292;80;21102;-52
2022/08/17 09:15:45;;;;;;;7.45;1.60;;;;;;;25.90;100.00;99059.52;1756276;80;21050;-54
2022/08/17 09:18:27;;;;;;;4.50;1.65;;;;;;;25.96;100.00;99058.75;1740317;80;783506;-54
2022/08/17 09:21:06;;;;;;;6.80;1.60;;;;;;;26.01;100.00;99056.83;1751894;80;21117;-54
2022/08/17 09:23:58;;;;;;;8.48;1.60;;;;;;;26.04;100.00;99058.33;1749788;80;21177;-55
2022/08/17 09:26:24;;;;;;;4.85;1.42;;;;;;;25.99;100.00;99053.39;1631426;80;975393;-54
2022/08/17 09:29:00;;;;;;;8.08;1.82;;;;;;;25.97;100.00;99053.58;1755088;80;20934;-52
2022/08/17 09:31:36;;;;;;;8.48;1.30;;;;;;;25.97;100.00;99057.71;1750826;80;21101;-53
2022/08/17 09:34:07;;;;;;;5.85;2.17;;;;;;;26.02;100.00;99059.92;1744130;80;783665;-54
2022/08/17 09:37:20;;;;;;;7.17;2.50;;;;;;;26.05;100.00;99058.14;1603676;80;975468;-54
2022/08/17 09:40:38;;;;;;;10.63;2.50;;;;;;;26.13;100.00;99058.05;1585945;80;978163;-52
2022/08/17 09:48:26;;;;;;;8.98;2.12;;;;;;;26.13;100.00;99058.05;1553415;80;984748;-53
2022/08/17 09:51:16;;;;;;;10.82;1.65;;;;;;;26.13;100.00;99058.05;1659214;80;975224;-53
2022/08/17 09:53:46;;;;;;;5.73;1.80;;;;;;;26.29;100.00;99046.00;1703213;80;984692;-53
2022/08/17 09:56:30;;;;;;;10.45;2.12;;;;;;;26.29;100.00;99046.00;1754674;80;21133;-57
2022/08/17 09:59:31;;;;;;;2.75;1.72;;;;;;;26.29;100.00;99037.72;1724150;81;21684;-55
2022/08/17 10:02:16;;;;;;;6.03;2.25;;;;;;;26.32;100.00;99047.00;1720526;81;21519;-56
2022/08/17 10:05:00;;;;;;;20.27;2.27;;;;;;;26.32;100.00;99047.86;1713996;81;21085;-53
2022/08/17 10:07:55;;;;;;;5.55;1.55;;;;;;;26.33;100.00;99050.95;1711486;81;21137;-53
2022/08/17 10:10:33;;;;;;;4.90;1.87;;;;;;;26.34;100.00;99045.77;1708844;82;21541;-56
2022/08/17 10:13:34;;;;;;;8.88;2.17;;;;;;;26.36;100.00;99042.83;1709340;82;21194;-54
2022/08/17 10:16:15;;;;;;;8.50;1.85;;;;;;;26.38;100.00;99045.70;1712288;82;21532;-53
2022/08/17 10:19:13;;;;;;;8.38;2.35;;;;;;;26.40;100.00;99039.14;1675485;83;21024;-53
2022/08/17 10:27:26;;;;;;;6.87;1.92;;;;;;;26.55;100.00;99035.31;1710148;82;21554;-53
2022/08/17 10:29:59;;;;;;;4.42;2.12;;;;;;;26.63;100.00;99042.09;1706417;82;21126;-56
2022/08/17 10:32:36;;;;;;;8.43;2.45;;;;;;;26.73;100.00;99036.27;1708725;82;21511;-54
2022/08/17 10:35:24;;;;;;;5.62;2.08;;;;;;;26.80;100.00;99046.00;1706506;82;21071;-54
2022/08/17 10:38:04;;;;;;;3.00;1.90;;;;;;;26.87;100.00;99045.59;1706744;82;21130;-54
2022/08/17 10:40:56;;;;;;;5.03;1.80;;;;;;;26.95;100.00;99040.83;1612742;82;985203;-54
2022/08/17 10:44:22;;;;;;;7.68;2.54;;;;;;;26.95;100.00;99040.83;1473079;82;984827;-54
2022/08/17 10:47:13;;;;;;;8.30;1.75;;;;;;;26.95;100.00;99040.83;1661509;82;974599;-54
2022/08/17 10:49:57;;;;;;;10.03;1.72;;;;;;;27.14;100.00;99042.63;1644878;81;975397;-55
2022/08/17 10:53:40;;;;;;;6.50;1.80;;;;;;;27.14;100.00;99042.63;1497276;82;985047;-52
2022/08/17 10:56:42;;;;;;;4.00;2.37;;;;;;;27.14;100.00;99042.63;1556544;82;984504;-54
2022/08/17 10:59:08;;;;;;;7.45;1.55;;;;;;;27.14;100.00;99042.63;1535117;82;975480;-57
2022/08/17 11:01:42;;;;;;;6.33;1.63;;;;;;;27.36;100.00;99034.13;1580381;82;975464;-55
2022/08/17 11:05:51;;;;;;;8.50;2.45;;;;;;;27.37;100.00;99030.31;1561980;82;975591;-52
2022/08/17 11:10:01;;;;;;;4.93;2.20;;;;;;;27.37;100.00;99030.31;1524380;82;975204;-55
2022/08/17 11:13:21;;;;;;;8.70;2.42;;;;;;;27.37;100.00;99030.31;1540704;82;984489;-54
2022/08/17 11:16:25;;;;;;;6.32;1.84;;;;;;;27.37;100.00;99030.31;1534008;82;975256;-55
2022/08/17 11:19:40;;;;;;;5.08;2.27;;;;;;;27.40;100.00;99024.89;1529213;82;984898;-55
2022/08/17 11:22:56;;;;;;;6.83;1.60;;;;;;;27.40;100.00;99024.89;1535713;82;975458;-53
2022/08/17 11:25:37;;;;;;;4.35;1.27;;;;;;;27.40;100.00;99024.89;1527833;82;979821;-53
2022/08/17 11:28:18;;;;;;;5.78;1.70;;;;;;;27.57;100.00;99024.97;1504871;82;984925;-52
2022/08/17 11:31:00;;;;;;;8.93;2.57;;;;;;;27.57;100.00;99024.97;1513158;82;984795;-55
2022/08/17 11:33:35;;;;;;;7.92;1.57;;;;;;;27.57;100.00;99024.97;1522384;82;975200;-57
2022/08/17 11:36:23;;;;;;;7.40;2.50;;;;;;;27.65;100.00;99018.43;1598379;82;984964;-54
2022/08/17 11:40:39;;;;;;;3.98;2.45;;;;;;;27.65;100.00;99018.43;1488114;82;984598;-56
2022/08/17 11:44:11;;;;;;;6.24;2.44;;;;;;;27.65;100.00;99018.43;1534920;82;975474;-52
2022/08/17 11:54:07;;;;;;;5.40;1.77;;;;;;;27.65;100.00;99018.43;1529309;82;975501;-52
2022/08/17 11:56:48;;;;;;;7.03;2.30;;;;;;;27.65;100.00;99018.43;1465771;82;984940;-55
2022/08/17 11:59:47;;;;;;;7.20;2.97;;;;;;;27.65;100.00;99018.43;1491702;82;985126;-54
2022/08/17 12:02:33;;;;;;;9.73;3.08;;;;;;;27.65;100.00;99018.43;1535287;82;975434;-52
2022/08/17 12:05:24;;;;;;;8.90;2.15;;;;;;;27.65;100.00;99018.43;1500227;82;975623;-53
2022/08/17 12:08:20;;;;;;;4.60;2.50;;;;;;;27.65;100.00;99018.43;1522179;82;984793;-54
2022/08/17 12:11:01;;;;;;;4.33;1.47;;;;;;;27.65;100.00;99018.43;1528454;82;984838;-52
2022/08/17 12:15:49;;;;;;;13.82;2.88;;;;;;;27.65;100.00;99018.43;1471711;82;984540;-53
2022/08/17 12:19:37;;;;;;;6.33;2.15;;;;;;;27.65;100.00;99018.43;1528036;82;984905;-55
2022/08/17 12:24:30;;;;;;;5.43;2.50;;;;;;;27.65;100.00;99018.43;1552349;82;975041;-51
2022/08/17 12:27:03;;;;;;;4.82;2.14;;;;;;;27.65;100.00;99018.43;1534032;82;984856;-53
2022/08/17 12:29:29;;;;;;;6.78;2.22;;;;;;;27.40;100.00;98994.48;1706060;82;21079;-52
2022/08/17 12:31:57;;;;;;;8.40;2.85;;;;;;;27.26;100.00;98992.16;1707625;82;21564;-52
2022/08/17 12:34:39;;;;;;;5.35;2.52;;;;;;;27.21;100.00;98992.43;1708635;82;21027;-52
2022/08/17 12:37:23;;;;;;;8.93;2.37;;;;;;;27.15;100.00;98989.91;1709235;82;21033;-53
2022/08/17 12:40:07;;;;;;;8.03;2.80;;;;;;;27.10;100.00;98997.95;1708263;82;21557;-52
2022/08/17 12:42:38;;;;;;;7.47;3.20;;;;;;;27.06;100.00;99006.29;1708332;82;21065;-55
2022/08/17 12:45:23;;;;;;;8.60;2.80;;;;;;;27.01;100.00;99000.52;1706458;82;21955;-53
2022/08/17 12:48:05;;;;;;;4.03;2.27;;;;;;;26.98;100.00;99003.66;1704297;82;21010;-56
2022/08/17 12:50:28;;;;;;;6.20;2.87;;;;;;;26.94;100.00;99000.98;1700936;82;21069;-52
2022/08/17 12:52:55;;;;;;;3.47;2.37;;;;;;;26.92;100.00;99004.45;1712120;82;20956;-52
2022/08/17 12:55:23;;;;;;;4.37;2.85;;;;;;;26.89;100.00;99011.18;1709729;82;21519;-53
2022/08/17 12:57:55;;;;;;;5.65;2.87;;;;;;;26.85;100.00;99008.50;1679131;83;21920;-53
2022/08/17 13:00:32;;;;;;;6.45;2.42;;;;;;;26.82;100.00;99008.02;1687389;82;21095;-54